Bonita, Louisiana
Current Conditions -  °F | °C
As of 7:15 AM on Thursday 18 Dec 2014 (Local Time) from KBQP Reporting Station
Haze Haze  
Wind Chill: 43°   Ceiling: 3300
Heat Index: 43°   Visibility: 5mi
Dew Point: 42°   Wind: 3mph
Humidity: 95%   Direction: 40°NE
Pressure: 30.21"   Gusts: NA
Location:  32.92°N, 91.68°W
Report Text: KBQP 181315Z AUTO 04003KT 5SM BR OVC033 06/05 A3021 RMK AO2 T00600053
Loading
Personal Weather Stations






























Interactive Weather Map New forecast layout! Learn more

10-Day Weather Forecast

Advertisements
Track Severe Weather on mobile